Time;durP1;ratioP1;P1;durP2;ratioP2;P2;SDS_P1;SDS_P2;PMS_P1;PMS_P2;Temp;Humidity;BMP_temperature;BMP_pressure;BME280_temperature;BME280_humidity;BME280_pressure;Samples;Min_cycle;Max_cycle;Signal;HPM_P1;HPM_P2
2021/09/27 00:01:02;;;;;;;3.10;1.80;;;18.90;75.90;;;;;;4988057;28;20556;-79
2021/09/27 00:03:29;;;;;;;3.03;1.50;;;18.90;76.00;;;;;;4981499;28;20034;-79
2021/09/27 00:05:55;;;;;;;1.70;1.60;;;18.90;76.00;;;;;;4986180;28;20042;-79
2021/09/27 00:08:22;;;;;;;3.17;2.08;;;18.90;76.00;;;;;;4984494;28;20549;-79
2021/09/27 00:10:50;;;;;;;4.68;1.88;;;18.90;76.10;;;;;;4986747;28;20470;-79
2021/09/27 00:13:17;;;;;;;2.53;1.48;;;18.90;76.10;;;;;;4992896;28;20026;-79
2021/09/27 00:15:49;;;;;;;4.38;1.90;;;18.90;76.20;;;;;;5011404;28;20038;-79
2021/09/27 00:18:16;;;;;;;4.03;1.30;;;18.90;76.20;;;;;;4987338;28;20094;-79
2021/09/27 00:20:46;;;;;;;2.47;1.33;;;18.90;76.20;;;;;;4974698;28;20190;-79
2021/09/27 00:23:13;;;;;;;3.92;1.38;;;18.90;76.30;;;;;;4976807;28;20537;-79
2021/09/27 00:25:40;;;;;;;4.18;1.38;;;18.90;76.30;;;;;;4989091;28;20128;-79
2021/09/27 00:28:06;;;;;;;2.20;1.20;;;18.80;76.10;;;;;;5006050;28;20033;-79
2021/09/27 00:30:32;;;;;;;4.20;2.50;;;18.80;76.20;;;;;;4972693;28;20124;-79
2021/09/27 00:32:58;;;;;;;2.60;1.30;;;18.80;76.20;;;;;;5004333;28;20034;-79
2021/09/27 00:35:28;;;;;;;2.88;1.70;;;18.80;76.30;;;;;;4988314;28;20045;-79
2021/09/27 00:37:55;;;;;;;3.95;1.52;;;18.80;76.40;;;;;;4987173;28;20034;-80
2021/09/27 00:40:27;;;;;;;3.97;1.67;;;18.80;76.40;;;;;;4971475;28;20077;-79
2021/09/27 00:42:55;;;;;;;3.25;1.40;;;18.80;76.40;;;;;;4989915;28;20052;-79
2021/09/27 00:45:28;;;;;;;3.05;1.40;;;18.80;76.40;;;;;;5009321;28;20462;-79
2021/09/27 00:47:54;;;;;;;5.93;1.85;;;18.80;76.50;;;;;;4991048;28;20368;-80
2021/09/27 00:50:24;;;;;;;4.72;1.55;;;18.70;76.30;;;;;;4989970;28;20034;-79
2021/09/27 00:52:51;;;;;;;3.40;1.40;;;18.70;76.40;;;;;;4987490;28;20030;-80
2021/09/27 00:55:20;;;;;;;2.28;1.42;;;18.70;76.40;;;;;;4970842;28;20034;-78
2021/09/27 00:57:46;;;;;;;2.55;1.13;;;18.70;76.50;;;;;;4955624;28;20490;-79
2021/09/27 01:00:16;;;;;;;3.55;1.45;;;18.70;76.50;;;;;;4971090;28;20076;-80
2021/09/27 01:02:42;;;;;;;2.47;1.15;;;18.70;76.60;;;;;;4987427;28;20026;-78
2021/09/27 01:05:11;;;;;;;3.15;1.48;;;18.70;76.60;;;;;;4971341;28;20113;-78
2021/09/27 01:08:26;;;;;;;2.72;1.40;;;18.70;76.60;;;;;;4987213;28;20030;-78
2021/09/27 01:11:31;;;;;;;4.00;1.83;;;18.70;76.70;;;;;;4986986;28;20377;-77
2021/09/27 01:14:02;;;;;;;3.50;1.38;;;18.70;76.70;;;;;;4977811;28;20080;-78
2021/09/27 01:16:31;;;;;;;2.90;1.45;;;18.70;76.70;;;;;;4993115;28;20092;-78
2021/09/27 01:19:18;;;;;;;3.65;1.65;;;18.70;76.70;;;;;;4974915;28;20149;-79
2021/09/27 01:22:01;;;;;;;4.05;1.92;;;18.70;76.80;;;;;;4990847;28;20050;-78
2021/09/27 01:24:33;;;;;;;;;;;18.70;76.80;;;;;;4990912;28;20128;-78
2021/09/27 01:27:19;;;;;;;3.47;1.67;;;18.70;76.70;;;;;;5006735;28;20410;-77
2021/09/27 01:30:08;;;;;;;5.72;1.80;;;18.70;76.70;;;;;;4996700;28;20133;-77
2021/09/27 01:32:52;;;;;;;4.53;1.33;;;18.70;76.80;;;;;;5004798;28;20486;-78
2021/09/27 01:38:30;;;;;;;4.22;1.83;;;18.60;76.80;;;;;;5188673;23;20132;-81
2021/09/27 01:41:27;;;;;;;6.43;1.92;;;18.60;76.80;;;;;;4887331;29;20040;-78
2021/09/27 01:44:14;;;;;;;4.18;1.90;;;18.70;77.10;;;;;;4890089;29;20032;-79
2021/09/27 01:46:44;;;;;;;3.35;1.15;;;18.60;77.00;;;;;;4889895;23;20057;-78
2021/09/27 01:49:22;;;;;;;4.95;1.40;;;18.60;76.90;;;;;;4860654;29;20040;-83
2021/09/27 01:51:59;;;;;;;2.40;1.17;;;18.60;77.60;;;;;;4860353;29;20132;-77
2021/09/27 01:54:50;;;;;;;6.03;1.98;;;18.60;77.10;;;;;;4871226;29;20120;-78
2021/09/27 01:57:38;;;;;;;5.35;1.80;;;18.60;77.10;;;;;;4861137;29;20369;-79
2021/09/27 02:00:27;;;;;;;3.15;1.55;;;18.60;77.20;;;;;;4878743;29;20097;-76
2021/09/27 02:03:14;;;;;;;3.85;1.30;;;18.60;77.30;;;;;;4878517;29;20041;-82
2021/09/27 02:05:52;;;;;;;7.28;1.92;;;18.50;77.10;;;;;;4878999;29;20060;-81
2021/09/27 02:08:38;;;;;;;5.32;1.90;;;18.50;77.10;;;;;;4877574;29;20040;-76
2021/09/27 02:11:31;;;;;;;4.32;1.95;;;18.50;77.30;;;;;;4878525;29;20084;-77
2021/09/27 02:14:15;;;;;;;3.47;1.40;;;18.50;77.30;;;;;;4878219;29;20048;-81
2021/09/27 02:17:04;;;;;;;5.75;1.42;;;18.50;77.30;;;;;;4878500;29;20512;-78
2021/09/27 02:19:32;;;;;;;3.70;1.52;;;18.50;77.30;;;;;;4876129;29;20195;-78
2021/09/27 02:22:32;;;;;;;3.42;1.35;;;18.50;77.30;;;;;;4861859;29;20041;-76
2021/09/27 02:25:18;;;;;;;4.68;1.45;;;18.50;77.50;;;;;;4878346;29;20049;-80
2021/09/27 02:27:47;;;;;;;4.95;2.38;;;18.50;77.50;;;;;;4878544;29;20033;-82
2021/09/27 02:30:20;;;;;;;4.20;1.58;;;18.50;77.50;;;;;;4878222;29;20571;-80
2021/09/27 02:33:12;;;;;;;4.15;1.63;;;18.50;77.50;;;;;;4878380;29;20036;-77
2021/09/27 02:35:49;;;;;;;4.00;1.73;;;18.50;77.60;;;;;;4876851;29;20036;-77
2021/09/27 02:38:46;;;;;;;7.30;2.22;;;18.50;77.70;;;;;;4878212;29;20128;-78
2021/09/27 02:41:53;;;;;;;10.88;3.00;;;18.50;77.70;;;;;;4859308;29;20049;-78
2021/09/27 02:44:20;;;;;;;3.00;1.55;;;18.50;77.70;;;;;;4871662;29;20189;-80
2021/09/27 02:46:54;;;;;;;4.90;2.38;;;18.50;77.60;;;;;;4859067;29;20113;-82
2021/09/27 02:49:28;;;;;;;4.18;1.55;;;18.50;77.70;;;;;;4859736;29;20052;-77
2021/09/27 02:51:59;;;;;;;4.65;1.50;;;18.50;77.80;;;;;;4859304;29;20030;-77
2021/09/27 02:54:39;;;;;;;5.50;1.73;;;18.40;77.70;;;;;;4859275;29;20085;-77
2021/09/27 02:57:32;;;;;;;6.03;1.75;;;18.40;77.80;;;;;;4859653;29;20045;-80
2021/09/27 03:00:16;;;;;;;4.35;1.75;;;18.50;78.00;;;;;;4857965;29;20049;-78
2021/09/27 03:03:13;;;;;;;4.93;2.00;;;18.40;77.80;;;;;;4858795;29;20029;-78
2021/09/27 03:06:03;;;;;;;2.63;1.80;;;18.40;77.80;;;;;;4859354;29;20438;-78
2021/09/27 03:09:08;;;;;;;7.88;2.38;;;18.40;77.90;;;;;;4859175;29;20425;-77
2021/09/27 03:11:58;;;;;;;3.05;1.40;;;18.40;77.90;;;;;;4838495;29;20049;-81
2021/09/27 03:14:43;;;;;;;6.70;2.35;;;18.40;78.00;;;;;;4858997;29;20033;-78
2021/09/27 03:17:28;;;;;;;7.57;2.15;;;18.40;77.90;;;;;;4859389;29;20106;-83
2021/09/27 03:20:22;;;;;;;4.18;1.80;;;18.50;78.20;;;;;;4857930;29;20045;-80
2021/09/27 03:23:21;;;;;;;6.50;2.28;;;18.40;78.10;;;;;;4857948;29;20057;-79
2021/09/27 03:26:05;;;;;;;8.15;2.50;;;18.40;78.10;;;;;;4841263;29;20041;-78
2021/09/27 03:28:40;;;;;;;3.90;1.77;;;18.40;78.00;;;;;;4858688;29;20128;-80
2021/09/27 03:31:33;;;;;;;4.50;1.95;;;18.40;78.10;;;;;;4842702;29;20050;-77
2021/09/27 03:34:06;;;;;;;7.13;1.83;;;18.40;78.20;;;;;;4858969;29;20057;-78
2021/09/27 03:37:01;;;;;;;6.30;2.40;;;18.40;78.20;;;;;;4859261;29;20316;-79
2021/09/27 03:39:36;;;;;;;4.22;1.67;;;18.40;78.20;;;;;;4858866;29;20076;-78
2021/09/27 03:42:16;;;;;;;7.25;2.47;;;18.40;78.20;;;;;;4858439;29;20049;-79
2021/09/27 03:45:07;;;;;;;7.43;2.75;;;18.40;78.20;;;;;;4858913;29;20536;-85
2021/09/27 03:47:36;;;;;;;5.22;1.60;;;18.40;78.30;;;;;;4857241;29;20056;-82
2021/09/27 03:50:11;;;;;;;7.63;2.40;;;18.40;78.20;;;;;;4859086;29;20037;-81
2021/09/27 03:52:46;;;;;;;7.35;2.22;;;18.40;78.30;;;;;;4859314;29;20408;-79
2021/09/27 03:55:23;;;;;;;4.70;1.92;;;18.40;78.30;;;;;;4857679;29;20080;-78
2021/09/27 03:58:17;;;;;;;7.57;2.58;;;18.40;78.30;;;;;;4858171;29;20526;-80
2021/09/27 04:01:04;;;;;;;6.32;2.17;;;18.40;78.40;;;;;;4872851;29;20101;-78
2021/09/27 04:04:02;;;;;;;6.68;2.47;;;18.40;78.40;;;;;;4858830;29;20486;-80
2021/09/27 04:06:46;;;;;;;7.60;2.63;;;18.40;78.40;;;;;;4858687;29;20045;-85
2021/09/27 04:09:36;;;;;;;5.88;2.00;;;18.40;78.40;;;;;;4859123;29;20407;-80
2021/09/27 04:12:24;;;;;;;6.28;2.65;;;18.40;78.50;;;;;;4858048;29;20033;-79
2021/09/27 04:14:59;;;;;;;4.93;1.77;;;18.40;78.50;;;;;;4860837;29;20026;-80
2021/09/27 04:17:40;;;;;;;3.88;1.80;;;18.40;78.50;;;;;;4862355;29;20037;-79
2021/09/27 04:20:24;;;;;;;3.40;1.52;;;18.40;78.60;;;;;;4861270;29;20052;-80
2021/09/27 04:23:22;;;;;;;2.83;1.65;;;18.30;78.50;;;;;;4862010;29;20489;-79
2021/09/27 04:26:19;;;;;;;9.32;2.58;;;18.30;78.50;;;;;;4861787;29;20099;-79
2021/09/27 04:29:20;;;;;;;6.00;2.33;;;18.30;78.60;;;;;;4861931;29;20090;-80
2021/09/27 04:32:29;;;;;;;7.45;2.35;;;18.30;78.60;;;;;;4861804;29;20046;-79
2021/09/27 04:35:15;;;;;;;7.18;1.58;;;18.40;78.80;;;;;;4825380;29;20022;-79
2021/09/27 04:37:45;;;;;;;4.28;1.65;;;18.30;78.70;;;;;;4861017;29;20041;-80
2021/09/27 04:40:13;;;;;;;5.15;1.70;;;18.30;78.70;;;;;;4860384;29;20049;-85
2021/09/27 04:42:57;;;;;;;5.25;1.70;;;18.30;78.80;;;;;;4860096;29;20455;-80
2021/09/27 04:45:40;;;;;;;5.97;1.67;;;18.30;78.90;;;;;;4845233;29;20068;-80
2021/09/27 04:48:18;;;;;;;;;;;18.30;78.90;;;;;;4859171;29;20049;-81
2021/09/27 04:51:10;;;;;;;4.95;1.40;;;18.30;78.80;;;;;;4858572;29;19966;-79
2021/09/27 04:53:43;;;;;;;4.03;1.13;;;18.30;78.80;;;;;;4858361;29;20048;-80
2021/09/27 04:56:29;;;;;;;2.53;1.20;;;18.20;78.60;;;;;;4857826;29;20029;-79
2021/09/27 04:58:58;;;;;;;4.97;2.42;;;18.20;78.60;;;;;;4845580;29;20052;-80
2021/09/27 05:02:01;;;;;;;6.75;2.15;;;18.10;78.40;;;;;;4840366;29;20026;-80
2021/09/27 05:04:33;;;;;;;3.05;1.10;;;18.10;78.40;;;;;;4853433;29;20041;-81
2021/09/27 05:07:37;;;;;;;2.72;0.90;;;18.00;78.20;;;;;;4856569;29;20449;-81
2021/09/27 05:10:21;;;;;;;;;;;18.00;78.30;;;;;;4856987;29;20056;-82
2021/09/27 05:13:12;;;;;;;2.40;1.05;;;17.90;78.10;;;;;;4848680;29;19923;-81
2021/09/27 05:16:08;;;;;;;3.33;1.63;;;17.90;78.10;;;;;;4838386;29;20285;-81
2021/09/27 05:18:47;;;;;;;3.13;1.70;;;17.80;78.00;;;;;;4837721;29;20038;-78
2021/09/27 05:22:11;;;;;;;5.70;1.77;;;17.80;78.00;;;;;;4838540;29;20069;-79
2021/09/27 05:24:56;;;;;;;;;;;17.70;78.00;;;;;;4856921;29;20158;-84
2021/09/27 05:27:31;;;;;;;4.35;1.20;;;17.60;77.80;;;;;;4837629;29;20289;-78
2021/09/27 05:30:15;;;;;;;2.33;0.93;;;17.60;77.70;;;;;;4835400;29;20041;-80
2021/09/27 05:32:47;;;;;;;6.63;1.63;;;17.50;77.60;;;;;;4838236;29;20526;-81
2021/09/27 05:35:31;;;;;;;3.20;1.30;;;17.50;77.60;;;;;;4836808;29;20548;-81
2021/09/27 05:38:13;;;;;;;2.55;1.08;;;17.40;77.50;;;;;;4851598;29;20564;-78
2021/09/27 05:41:08;;;;;;;3.20;0.95;;;17.40;77.60;;;;;;4856266;29;20297;-78
2021/09/27 05:43:39;;;;;;;1.92;0.80;;;17.30;77.40;;;;;;4852719;29;20145;-78
2021/09/27 05:46:27;;;;;;;2.17;1.13;;;17.30;77.40;;;;;;4855845;29;20041;-77
2021/09/27 05:48:59;;;;;;;1.80;0.73;;;17.20;77.30;;;;;;4849619;29;20086;-80
2021/09/27 05:51:47;;;;;;;1.90;0.73;;;17.10;77.10;;;;;;4854745;29;20034;-77
2021/09/27 05:54:28;;;;;;;3.70;0.77;;;17.10;77.20;;;;;;4855256;29;20056;-81
2021/09/27 05:57:13;;;;;;;1.45;0.90;;;17.10;77.20;;;;;;4856227;29;20117;-79
2021/09/27 05:59:56;;;;;;;2.03;0.68;;;17.00;77.00;;;;;;4855038;29;20056;-79
2021/09/27 06:02:46;;;;;;;2.08;0.70;;;16.90;76.90;;;;;;4854223;29;20108;-81
2021/09/27 06:05:29;;;;;;;1.75;0.77;;;16.90;76.90;;;;;;4854221;29;20496;-82
2021/09/27 06:08:05;;;;;;;;;;;16.80;76.70;;;;;;4851402;29;20030;-80
2021/09/27 06:11:01;;;;;;;3.47;0.77;;;16.80;76.70;;;;;;4837695;29;20056;-80
2021/09/27 06:13:34;;;;;;;0.73;0.52;;;16.80;76.70;;;;;;4841546;29;20038;-80
2021/09/27 06:16:07;;;;;;;1.10;0.60;;;16.70;76.60;;;;;;4835799;29;20069;-79
2021/09/27 06:19:11;;;;;;;1.35;0.65;;;16.60;76.50;;;;;;4837075;29;20141;-80
2021/09/27 06:21:40;;;;;;;1.50;0.50;;;16.60;76.50;;;;;;4835393;29;20045;-81
2021/09/27 06:24:28;;;;;;;1.10;0.50;;;16.60;76.60;;;;;;4842196;29;20025;-78
2021/09/27 06:27:14;;;;;;;2.05;0.75;;;16.50;76.40;;;;;;4855733;29;20064;-75
2021/09/27 06:29:49;;;;;;;0.73;0.40;;;16.50;77.00;;;;;;4836724;29;20038;-78
2021/09/27 06:32:36;;;;;;;1.95;0.52;;;16.50;76.50;;;;;;4836860;29;20034;-78
2021/09/27 06:35:07;;;;;;;0.95;0.40;;;16.40;76.30;;;;;;4836722;29;20030;-77
2021/09/27 06:37:34;;;;;;;1.13;0.52;;;16.40;76.30;;;;;;4837682;29;20034;-80
2021/09/27 06:40:09;;;;;;;1.00;0.73;;;16.40;76.30;;;;;;4854892;29;20073;-77
2021/09/27 06:42:36;;;;;;;3.30;1.00;;;16.40;76.40;;;;;;4854132;29;20029;-78
2021/09/27 06:45:05;;;;;;;2.25;1.30;;;16.40;76.50;;;;;;4854938;29;20116;-79
2021/09/27 06:47:31;;;;;;;1.60;0.73;;;16.40;76.60;;;;;;4854396;29;20119;-78
2021/09/27 06:49:57;;;;;;;1.13;0.70;;;16.40;76.60;;;;;;4854847;29;20030;-77
2021/09/27 06:52:23;;;;;;;2.38;0.60;;;16.40;76.50;;;;;;4855200;29;20049;-76
2021/09/27 06:54:49;;;;;;;2.05;1.08;;;16.40;76.50;;;;;;4854433;29;20037;-78
2021/09/27 06:57:15;;;;;;;1.67;0.70;;;16.40;76.40;;;;;;4854980;29;20211;-77
2021/09/27 06:59:41;;;;;;;1.55;1.00;;;16.40;76.30;;;;;;4854503;29;20393;-78
2021/09/27 07:02:07;;;;;;;1.55;0.70;;;16.40;76.30;;;;;;4854527;29;20090;-78
2021/09/27 07:04:33;;;;;;;0.65;0.40;;;16.40;76.20;;;;;;4854984;29;20033;-78
2021/09/27 07:06:59;;;;;;;2.10;0.60;;;16.40;76.00;;;;;;4854758;29;20050;-78
2021/09/27 07:09:25;;;;;;;0.73;0.45;;;16.40;76.00;;;;;;4838077;29;20042;-77
2021/09/27 07:11:51;;;;;;;1.95;0.75;;;16.40;75.80;;;;;;4836168;29;20060;-77
2021/09/27 07:14:17;;;;;;;0.75;0.50;;;16.50;75.90;;;;;;4836658;29;20129;-79
2021/09/27 07:16:43;;;;;;;1.65;0.50;;;16.50;75.70;;;;;;4836407;29;20123;-77
2021/09/27 07:19:10;;;;;;;1.98;0.77;;;16.50;75.60;;;;;;4849931;29;20048;-76
2021/09/27 07:21:39;;;;;;;0.98;0.50;;;16.50;75.50;;;;;;4855165;29;20029;-77
2021/09/27 07:24:06;;;;;;;1.52;0.88;;;16.50;75.40;;;;;;4837924;29;20025;-78
2021/09/27 07:26:32;;;;;;;0.77;0.77;;;16.50;75.40;;;;;;4854503;29;20489;-77
2021/09/27 07:28:59;;;;;;;1.05;0.77;;;16.60;75.40;;;;;;4851774;29;20077;-77
2021/09/27 07:31:27;;;;;;;1.48;0.70;;;16.60;75.20;;;;;;4836073;29;20030;-78
2021/09/27 07:33:54;;;;;;;1.63;0.98;;;16.60;75.10;;;;;;4835772;29;20030;-79
2021/09/27 07:36:20;;;;;;;2.40;0.88;;;16.60;75.00;;;;;;4835821;29;20509;-77
2021/09/27 07:38:46;;;;;;;1.70;0.82;;;16.60;74.90;;;;;;4834224;29;20073;-77
2021/09/27 07:41:12;;;;;;;1.95;0.90;;;16.60;74.80;;;;;;4836022;29;20072;-76
2021/09/27 07:43:39;;;;;;;1.63;0.75;;;16.50;74.70;;;;;;4848210;29;20083;-77
2021/09/27 07:46:05;;;;;;;3.03;1.50;;;16.50;74.60;;;;;;4852552;29;20057;-78
2021/09/27 07:48:31;;;;;;;2.53;0.90;;;16.50;74.60;;;;;;4854707;29;20493;-77
2021/09/27 07:50:58;;;;;;;2.05;0.85;;;16.50;74.60;;;;;;4858240;29;20061;-77
2021/09/27 07:53:25;;;;;;;1.52;0.77;;;16.50;74.60;;;;;;4858115;29;20037;-77
2021/09/27 07:55:52;;;;;;;1.52;0.75;;;16.50;74.60;;;;;;4857702;29;20093;-77
2021/09/27 07:58:19;;;;;;;1.17;0.88;;;16.40;74.40;;;;;;4857661;29;20033;-77
2021/09/27 08:00:48;;;;;;;3.55;1.15;;;16.40;74.30;;;;;;4856728;29;20046;-84
2021/09/27 08:03:14;;;;;;;2.10;1.17;;;16.40;74.20;;;;;;4857431;29;20038;-77
2021/09/27 08:05:41;;;;;;;2.13;1.00;;;16.50;74.40;;;;;;4857732;29;20044;-77
2021/09/27 08:08:07;;;;;;;2.03;1.02;;;16.50;74.30;;;;;;4857277;29;20033;-77
2021/09/27 08:10:36;;;;;;;2.05;0.93;;;16.50;74.20;;;;;;4857918;29;20443;-77
2021/09/27 08:13:03;;;;;;;2.20;1.25;;;16.50;74.10;;;;;;4849055;29;20030;-77
2021/09/27 08:15:33;;;;;;;1.25;1.05;;;16.50;74.00;;;;;;4838710;29;20094;-78
2021/09/27 08:18:00;;;;;;;1.70;0.90;;;16.50;74.50;;;;;;4843959;29;20034;-77
2021/09/27 08:20:38;;;;;;;1.55;0.80;;;16.50;73.90;;;;;;4856375;29;20037;-78
2021/09/27 08:23:05;;;;;;;1.38;1.05;;;16.50;73.90;;;;;;4850261;29;20120;-78
2021/09/27 08:25:31;;;;;;;1.45;1.02;;;16.50;73.80;;;;;;4852200;29;20584;-77
2021/09/27 08:27:59;;;;;;;1.85;1.13;;;16.50;73.70;;;;;;4851820;29;20034;-81
2021/09/27 08:30:32;;;;;;;2.25;0.90;;;16.50;73.70;;;;;;4857299;29;20029;-77
2021/09/27 08:33:00;;;;;;;1.58;0.85;;;16.50;73.70;;;;;;4857589;29;20029;-80
2021/09/27 08:35:27;;;;;;;1.17;0.90;;;16.60;73.80;;;;;;4856142;29;20030;-78
2021/09/27 08:37:54;;;;;;;1.05;0.75;;;16.60;73.70;;;;;;4856088;29;20025;-76
2021/09/27 08:41:02;;;;;;;1.40;1.10;;;16.60;73.50;;;;;;4856070;29;20042;-77
2021/09/27 08:43:45;;;;;;;2.42;0.88;;;16.60;73.30;;;;;;4845279;29;20450;-76
2021/09/27 08:46:48;;;;;;;1.13;1.02;;;16.70;73.40;;;;;;4838540;29;20106;-77
2021/09/27 08:49:34;;;;;;;0.88;0.70;;;16.70;73.30;;;;;;4841123;29;20505;-78
2021/09/27 08:52:01;;;;;;;1.10;0.80;;;16.80;73.40;;;;;;4838461;29;20086;-77
2021/09/27 08:54:29;;;;;;;2.00;0.60;;;16.80;73.30;;;;;;4838296;29;20034;-77
2021/09/27 08:57:01;;;;;;;1.80;0.70;;;16.90;73.40;;;;;;4841883;29;20061;-76
2021/09/27 08:59:55;;;;;;;1.80;1.08;;;16.90;73.30;;;;;;4837936;29;20049;-76
2021/09/27 09:02:46;;;;;;;1.63;0.65;;;17.10;73.40;;;;;;4842752;29;20733;-78
2021/09/27 09:05:35;;;;;;;2.20;0.70;;;17.20;73.20;;;;;;4856397;29;20029;-76
2021/09/27 09:08:30;;;;;;;1.92;0.90;;;17.20;72.90;;;;;;4856225;29;20415;-77
2021/09/27 09:11:06;;;;;;;3.45;0.85;;;17.20;73.30;;;;;;4856389;29;20124;-78
2021/09/27 09:13:45;;;;;;;2.05;0.60;;;17.30;73.00;;;;;;4854586;29;20042;-76
2021/09/27 09:16:16;;;;;;;4.20;0.60;;;17.30;72.90;;;;;;4855396;29;20362;-78
2021/09/27 09:18:47;;;;;;;0.95;0.60;;;17.40;72.90;;;;;;4856157;29;20038;-77
2021/09/27 09:21:19;;;;;;;1.25;0.60;;;17.50;72.90;;;;;;4856546;29;20034;-76
2021/09/27 09:23:56;;;;;;;2.10;0.60;;;17.60;72.90;;;;;;4855398;29;20160;-76
2021/09/27 09:26:32;;;;;;;0.90;0.52;;;17.70;72.80;;;;;;4856640;29;20116;-76
2021/09/27 09:28:59;;;;;;;3.33;1.48;;;17.70;72.60;;;;;;4844270;29;20037;-76
2021/09/27 09:31:33;;;;;;;2.58;0.55;;;17.70;72.50;;;;;;4836094;29;20030;-77
2021/09/27 09:34:06;;;;;;;1.40;0.52;;;17.60;72.20;;;;;;4837862;29;20098;-77
2021/09/27 09:36:32;;;;;;;4.57;0.70;;;17.70;72.40;;;;;;4837285;29;20049;-76
2021/09/27 09:38:59;;;;;;;1.70;0.75;;;17.70;72.40;;;;;;4837693;29;20506;-77
2021/09/27 09:41:58;;;;;;;1.48;0.57;;;17.70;72.40;;;;;;4837273;29;20045;-77
2021/09/27 09:44:35;;;;;;;2.22;0.93;;;17.70;72.20;;;;;;4837279;29;20057;-78
2021/09/27 09:47:18;;;;;;;4.10;1.50;;;17.70;72.10;;;;;;4836124;29;20053;-79
2021/09/27 09:50:11;;;;;;;1.33;0.68;;;17.70;72.00;;;;;;4835735;29;20042;-77
2021/09/27 09:52:42;;;;;;;4.20;1.50;;;17.70;71.90;;;;;;4841758;29;20034;-78
2021/09/27 09:55:14;;;;;;;1.70;0.70;;;17.70;71.80;;;;;;4856231;29;20037;-78
2021/09/27 09:57:43;;;;;;;2.05;0.70;;;17.70;71.70;;;;;;4855936;29;20029;-77
2021/09/27 10:00:20;;;;;;;2.53;0.80;;;17.80;71.80;;;;;;4855305;29;20076;-77
2021/09/27 10:02:53;;;;;;;3.17;1.05;;;17.80;71.70;;;;;;4850153;29;20121;-77
2021/09/27 10:05:27;;;;;;;3.65;0.80;;;17.80;71.80;;;;;;4837556;29;20042;-81
2021/09/27 10:07:57;;;;;;;5.05;1.27;;;17.90;71.80;;;;;;4841329;29;20041;-81
2021/09/27 10:10:36;;;;;;;1.75;0.63;;;18.00;71.70;;;;;;4854520;29;20060;-76
2021/09/27 10:13:40;;;;;;;2.17;0.70;;;18.10;71.60;;;;;;4846762;29;20577;-76
2021/09/27 10:16:31;;;;;;;5.85;1.33;;;18.10;71.50;;;;;;4837529;29;20517;-77
2021/09/27 10:19:23;;;;;;;2.53;0.80;;;18.20;71.70;;;;;;4848263;29;20034;-76
2021/09/27 10:21:57;;;;;;;2.97;0.73;;;18.30;71.70;;;;;;4854043;29;20042;-76
2021/09/27 10:24:32;;;;;;;3.08;0.77;;;18.50;71.70;;;;;;4853648;29;20033;-77
2021/09/27 10:27:00;;;;;;;4.15;0.80;;;18.60;71.50;;;;;;4854242;29;20041;-76
2021/09/27 10:29:29;;;;;;;2.55;0.82;;;18.70;71.40;;;;;;4868860;29;20040;-76
2021/09/27 10:32:00;;;;;;;5.63;1.35;;;18.80;71.30;;;;;;4854297;29;20364;-76
2021/09/27 10:34:31;;;;;;;2.83;0.93;;;18.90;71.30;;;;;;4853634;29;20441;-78
2021/09/27 10:37:06;;;;;;;4.82;1.58;;;18.90;71.20;;;;;;4853948;29;20562;-76
2021/09/27 10:39:32;;;;;;;5.00;1.35;;;19.10;71.40;;;;;;4837512;29;20034;-82
2021/09/27 10:42:14;;;;;;;2.78;1.15;;;19.20;71.40;;;;;;4837296;29;20061;-77
2021/09/27 10:44:42;;;;;;;3.60;0.70;;;19.30;71.00;;;;;;4848754;29;20045;-76
2021/09/27 10:47:16;;;;;;;4.82;1.20;;;19.40;71.00;;;;;;4841591;29;20092;-77
2021/09/27 10:49:48;;;;;;;5.35;1.45;;;19.60;70.80;;;;;;4853765;29;20038;-78
2021/09/27 10:52:17;;;;;;;4.07;1.10;;;19.60;70.50;;;;;;4852666;29;20065;-77
2021/09/27 10:54:55;;;;;;;4.57;1.67;;;19.70;70.50;;;;;;4835975;29;20038;-76
2021/09/27 10:57:24;;;;;;;3.75;1.17;;;19.70;70.20;;;;;;4834686;29;20122;-76
2021/09/27 11:00:00;;;;;;;4.00;0.88;;;19.80;70.00;;;;;;4835865;29;20038;-76
2021/09/27 11:02:31;;;;;;;8.82;1.55;;;19.80;69.70;;;;;;4836110;29;20128;-76
2021/09/27 11:05:41;;;;;;;3.95;1.05;;;19.80;69.60;;;;;;4832845;29;20457;-76
2021/09/27 11:08:13;;;;;;;2.63;0.80;;;19.80;69.20;;;;;;4848374;29;20038;-77
2021/09/27 11:10:46;;;;;;;3.67;1.30;;;19.80;69.30;;;;;;4836256;29;20108;-75
2021/09/27 11:13:37;;;;;;;4.13;1.00;;;19.80;69.20;;;;;;4842065;29;20039;-76
2021/09/27 11:16:29;;;;;;;4.50;1.60;;;19.80;69.20;;;;;;4836186;29;20038;-76
2021/09/27 11:19:18;;;;;;;3.75;0.90;;;19.80;68.90;;;;;;4835959;29;20045;-76
2021/09/27 11:21:47;;;;;;;4.07;1.15;;;19.70;68.50;;;;;;4835033;29;20034;-77
2021/09/27 11:24:16;;;;;;;5.13;1.52;;;19.70;68.50;;;;;;4848934;29;20084;-76
2021/09/27 11:27:00;;;;;;;3.92;1.08;;;19.70;68.30;;;;;;4852767;29;20081;-77
2021/09/27 11:29:49;;;;;;;5.25;1.15;;;19.70;68.10;;;;;;4853379;29;20540;-77
2021/09/27 11:32:36;;;;;;;4.47;1.05;;;19.60;67.80;;;;;;4851441;29;20037;-76
2021/09/27 11:35:35;;;;;;;3.35;1.13;;;19.60;67.70;;;;;;4840779;29;20405;-77
2021/09/27 11:38:17;;;;;;;2.67;0.82;;;19.60;67.70;;;;;;4835483;29;20537;-77
2021/09/27 11:40:47;;;;;;;4.38;1.10;;;19.50;67.40;;;;;;4834605;29;20049;-76
2021/09/27 11:43:22;;;;;;;2.10;0.80;;;19.50;67.40;;;;;;4850067;29;20041;-77
2021/09/27 11:45:56;;;;;;;2.47;0.80;;;19.50;67.20;;;;;;4853712;29;20291;-78
2021/09/27 11:48:55;;;;;;;3.13;0.98;;;19.50;67.00;;;;;;4847573;29;20509;-77
2021/09/27 11:51:28;;;;;;;2.75;1.13;;;19.60;66.90;;;;;;4864361;29;20041;-78
2021/09/27 11:54:02;;;;;;;6.03;1.42;;;19.50;66.60;;;;;;4841879;29;20481;-77
2021/09/27 11:56:55;;;;;;;3.65;1.00;;;19.50;66.50;;;;;;4851854;29;20515;-77
2021/09/27 11:59:46;;;;;;;1.57;0.50;;;19.60;66.40;;;;;;4852609;29;20041;-77
2021/09/27 12:02:57;;;;;;;3.03;0.82;;;19.60;66.30;;;;;;4853431;29;20033;-79
2021/09/27 12:05:46;;;;;;;3.03;0.70;;;19.60;66.20;;;;;;4834225;29;20026;-77
2021/09/27 12:08:24;;;;;;;2.28;0.52;;;19.70;66.10;;;;;;4835002;29;20037;-80
2021/09/27 12:10:59;;;;;;;3.03;0.80;;;19.70;65.90;;;;;;4834094;29;20486;-78
2021/09/27 12:13:48;;;;;;;5.15;0.80;;;19.70;65.80;;;;;;4830676;29;20041;-79
2021/09/27 12:16:24;;;;;;;1.75;0.77;;;19.80;65.80;;;;;;4851874;29;20145;-79
2021/09/27 12:18:58;;;;;;;2.65;0.60;;;19.80;65.60;;;;;;4853074;29;20080;-79
2021/09/27 12:21:44;;;;;;;3.42;0.95;;;19.90;65.60;;;;;;4853629;29;20046;-77
2021/09/27 12:24:21;;;;;;;2.42;0.77;;;20.00;65.40;;;;;;4837284;29;20406;-77
2021/09/27 12:26:52;;;;;;;3.90;1.30;;;20.00;65.30;;;;;;4833984;29;20064;-78
2021/09/27 12:29:22;;;;;;;1.90;0.50;;;20.10;65.40;;;;;;4847371;29;20044;-79
2021/09/27 12:31:57;;;;;;;2.38;0.70;;;20.30;65.40;;;;;;4852435;29;20237;-78
2021/09/27 12:34:30;;;;;;;3.30;0.63;;;20.40;65.20;;;;;;4853548;29;20042;-77
2021/09/27 12:36:57;;;;;;;;;;;20.50;65.00;;;;;;4857418;29;20182;-79
2021/09/27 12:39:27;;;;;;;4.93;0.70;;;20.60;65.30;;;;;;4842113;29;20376;-77
2021/09/27 12:41:55;;;;;;;4.30;1.67;;;20.60;64.80;;;;;;4838595;29;20038;-81
2021/09/27 12:44:31;;;;;;;4.68;0.88;;;20.60;64.50;;;;;;4855530;29;20846;-80
2021/09/27 12:47:03;;;;;;;6.80;0.80;;;20.80;64.60;;;;;;4856710;29;20056;-77
2021/09/27 12:49:38;;;;;;;4.15;1.73;;;20.80;64.50;;;;;;4856685;29;20473;-78
2021/09/27 12:52:08;;;;;;;3.28;0.95;;;20.80;64.20;;;;;;4840187;29;20030;-79
2021/09/27 12:54:45;;;;;;;2.72;0.88;;;20.70;63.80;;;;;;4856356;29;20037;-77
2021/09/27 12:57:24;;;;;;;4.13;0.60;;;20.70;63.50;;;;;;4855733;29;20221;-77
2021/09/27 12:59:50;;;;;;;3.22;0.75;;;20.80;63.40;;;;;;4854982;29;20045;-77
2021/09/27 13:02:18;;;;;;;2.40;0.85;;;20.80;63.50;;;;;;4856337;29;20033;-78
2021/09/27 13:05:03;;;;;;;3.47;1.10;;;20.80;63.40;;;;;;4857218;29;20033;-79
2021/09/27 13:07:43;;;;;;;4.50;0.93;;;20.90;63.50;;;;;;4856095;29;20034;-82
2021/09/27 13:10:24;;;;;;;2.83;0.70;;;21.00;63.40;;;;;;4836897;29;20057;-83
2021/09/27 13:13:22;;;;;;;3.63;0.68;;;21.00;63.20;;;;;;4840369;29;20046;-80
2021/09/27 13:16:01;;;;;;;2.78;0.63;;;21.10;63.10;;;;;;4843056;29;20057;-78
2021/09/27 13:18:33;;;;;;;3.33;0.60;;;21.10;63.00;;;;;;4844883;29;20073;-81
2021/09/27 13:21:44;;;;;;;5.13;1.00;;;21.20;63.10;;;;;;4856146;29;20129;-78
2021/09/27 13:24:22;;;;;;;3.33;0.82;;;21.30;63.00;;;;;;4816412;29;20075;-78
2021/09/27 13:27:03;;;;;;;2.80;0.80;;;21.40;62.90;;;;;;4833206;29;20057;-79
2021/09/27 13:29:41;;;;;;;4.80;0.98;;;21.40;62.80;;;;;;4837231;29;20090;-79
2021/09/27 13:32:20;;;;;;;1.85;0.68;;;21.30;62.70;;;;;;4837775;29;20042;-81
2021/09/27 13:34:57;;;;;;;3.05;0.95;;;21.20;62.60;;;;;;4837722;29;20182;-79
2021/09/27 13:37:27;;;;;;;1.80;0.50;;;21.20;62.80;;;;;;4836949;29;20037;-79
2021/09/27 13:39:56;;;;;;;3.22;1.00;;;21.10;62.80;;;;;;4855497;29;20033;-83
2021/09/27 13:42:46;;;;;;;2.53;0.65;;;21.10;62.90;;;;;;4868702;29;20034;-80
2021/09/27 13:45:26;;;;;;;4.40;1.90;;;21.30;63.10;;;;;;4836789;29;20065;-79
2021/09/27 13:47:52;;;;;;;1.67;0.55;;;21.40;63.00;;;;;;4843309;29;20190;-78